Monday, March 30, 2015
04:28 UTC
  |  Log In   |  Register Free
Airport Search:

Southwest Georgia Regional Airport
(KABY)

FAA data valid effective March 05, 2015 - April 30, 2015 (unless otherwise noted).

 
 
 
 
 
 
 
 
 
 
 
 
 
 

Current Aviation Weather for Southwest Georgia Regional Airport (KABY)

The most recent METAR observation for KABY was updated at: 1407
METAR Summary (Translated METAR)
KABY
251353Z 32004KT 10SM BKN030 18/16 A3018 RMK AO2 SLP219 T01830156
KMGR
251355Z AUTO 00000KT 10SM CLR 17/ A3016 RMK AO2
(33.7 nm SE from KABY)
KACJ
251355Z AUTO 36004KT 10SM OVC032 17/16 A3019 RMK AO2
(34.5 nm NE from KABY)
TAF Summary (Translated TAF)
KABY
251138Z 2512/2612 00000KT P6SM SCT030 OVC040 TEMPO 2512/2513 BKN030 FM251400 00000KT P6SM BKN035 FM251600 11003KT P6SM SCT050 SCT250 FM260200 00000KT P6SM SCT100 SCT250 FM260900 00000KT 5SM BR BKN100 BKN250
  Airport Weather Conditions for KABY

 Current Weather at ABY
47° F
Fair
Southwest winds at 5.8 mph
ABY NOAA Radar

Pressure: 30.32 in
Humidity: 71%
Wind: Southwest at 5.8 MPH (5 KT)
Dew Point: 37.9°F
Visibility: 10.00 mi


Airport Weather Forecast for KABY

Translated METAR and TAF for KABY
Translated METAR for KABY (0428 UTC 30 March 2015)
found at http://aviationweather.gov/adds/metars/
 
METAR text: KABY 300353Z AUTO 21005KT 10SM CLR 08/03 A3032 RMK AO2 SLP268 T00830033
Conditions at: KABY (ALBANY , GA, US) observed 0353 UTC 30 March 2015
Temperature: 8.3°C (47°F)
Dewpoint: 3.3°C (38°F) [RH = 71%]
Pressure (altimeter): 30.32 inches Hg (1026.8 mb)
[Sea-level pressure: 1026.8 mb]
Winds: from the SSW (210 degrees) at 6 MPH (5 knots; 2.6 m/s)
Visibility: 10 or more miles (16+ km)
Ceiling: at least 12,000 feet AGL
Clouds: sky clear below 12,000 feet AGL
Weather: automated observation with no human augmentation;
there may or may not be significant weather present at this time
Translated TAF for KABY
Forecast for: KABY (ALBANY , GA, US)
TAF Text: KABY 292322Z 3000/3024 VRB04KT P6SM SCT060
Forecast period: 0000 to 0200 UTC 30 March 2015
Forecast type: FROM: standard forecast or significant change
Winds: variable direction winds at 5 MPH (4 knots; 2.1 m/s)
Visibility: 6 or more miles (10+ km)
Clouds: scattered clouds at 6000 feet AGL
Weather: no significant weather forecast for this period
TAF Text: FM300200 00000KT P6SM SKC
Forecast period: 0200 to 1300 UTC 30 March 2015
Forecast type: FROM: standard forecast or significant change
Winds: calm
Visibility: 6 or more miles (10+ km)
Clouds: clear skies
Weather: no significant weather forecast for this period
TAF Text: FM301300 24010KT P6SM BKN035
Forecast period: 1300 to 1600 UTC 30 March 2015
Forecast type: FROM: standard forecast or significant change
Winds: from the WSW (240 degrees) at 12 MPH (10 knots; 5.2 m/s)
Visibility: 6 or more miles (10+ km)
Ceiling: 3500 feet AGL
Clouds: broken clouds at 3500 feet AGL
Weather: no significant weather forecast for this period
TAF Text: FM301600 27011G20KT P6SM BKN040
Forecast period: 1600 UTC 30 March 2015 to 0000 UTC 31 March 2015
Forecast type: FROM: standard forecast or significant change
Winds: from the W (270 degrees) at 13 MPH (11 knots; 5.7 m/s)
gusting to 23 MPH (20 knots; 10.4 m/s)
Visibility: 6 or more miles (10+ km)
Ceiling: 4000 feet AGL
Clouds: broken clouds at 4000 feet AGL
Weather: no significant weather forecast for this period
TAF Text: TEMPO 3018/3022 VRB15G25KT 3SM TSRA BKN025CB
Forecast period: 1800 to 2200 UTC 30 March 2015
Forecast type: TEMPORARY: The following changes expected for less than half the time period
Winds: variable direction winds at 17 MPH (15 knots; 7.8 m/s)
gusting to 29 MPH (25 knots; 13.0 m/s)
Visibility: 3 miles (5 km)
Ceiling: 2500 feet AGL
Clouds: broken clouds at 2500 feet AGL
Weather: TSRA  (rain associated with thunderstorm(s))

Find All Airport Services Find A Hotel Find A Rental Car Find A Golf Course Find A Restaurant $100 Hamburger



FBO's on the Field
FBO Company Facility Photos Services Transportation Aviation Fuel Prices: Prices include tax
Catering Weather Repair Courtesy Rental Type 100LL JetA JetA+ MOGAS 8087
 
Eagles of America, Inc. - ABY

Currently rated 5 by 1 person
FS:Epic
Last Updated: Mar-16
Login to update fuel prices
SS:
Contact Eagles of America, Inc. - ABYMore FBO Information
 
Add another FBO Facility Photos Catering Weather Repair Courtesy Rental Type 100LL JetA JetA+ MOGAS 8087
Services Transportation Aviation Fuel Prices: Prices include tax


model-print
model-print
model-print
model-print